TimeMDT,TemperatureF,Dew PointF,Humidity,Sea Level PressureIn,VisibilityMPH,Wind Direction,Wind SpeedMPH,Gust SpeedMPH,PrecipitationIn,Events,Conditions,WindDirDegrees,DateUTC
12:55 AM,42.1,37.0,82,29.83,10.0,WNW,3.5,-,N/A,,Clear,290,2013-10-09 06:55:00
1:55 AM,41.0,37.0,86,29.86,10.0,Calm,Calm,-,N/A,,Clear,0,2013-10-09 07:55:00
2:55 AM,39.9,36.0,86,29.88,10.0,Calm,Calm,-,N/A,,Clear,0,2013-10-09 08:55:00
3:55 AM,39.0,36.0,89,29.90,10.0,West,5.8,-,N/A,,Clear,280,2013-10-09 09:55:00
4:55 AM,39.9,36.0,86,29.91,10.0,WNW,6.9,-,N/A,,Clear,290,2013-10-09 10:55:00
5:55 AM,45.0,37.9,76,29.93,10.0,North,12.7,-,N/A,,Clear,350,2013-10-09 11:55:00
6:55 AM,44.1,37.0,76,29.94,10.0,North,12.7,-,N/A,,Clear,360,2013-10-09 12:55:00
7:55 AM,46.9,37.0,68,29.97,10.0,North,11.5,-,N/A,,Clear,360,2013-10-09 13:55:00
8:55 AM,54.0,37.9,55,29.98,10.0,North,13.8,-,N/A,,Clear,10,2013-10-09 14:55:00
9:55 AM,59.0,36.0,42,29.99,10.0,NE,15.0,-,N/A,,Clear,40,2013-10-09 15:55:00
10:55 AM,60.1,39.0,46,29.99,10.0,North,15.0,-,N/A,,Clear,10,2013-10-09 16:55:00
11:55 AM,63.0,37.9,40,29.98,10.0,NNE,10.4,-,N/A,,Clear,30,2013-10-09 17:55:00
12:55 PM,66.0,36.0,33,29.95,10.0,NNE,13.8,-,N/A,,Clear,20,2013-10-09 18:55:00
1:55 PM,68.0,35.1,30,29.92,10.0,NNE,16.1,-,N/A,,Clear,30,2013-10-09 19:55:00
2:55 PM,68.0,37.9,33,29.92,10.0,NE,18.4,25.3,N/A,,Clear,40,2013-10-09 20:55:00
3:55 PM,66.9,39.0,36,29.93,10.0,NNE,15.0,21.9,N/A,,Clear,30,2013-10-09 21:55:00
4:55 PM,64.0,39.9,41,29.93,10.0,NNE,12.7,-,N/A,,Clear,20,2013-10-09 22:55:00
5:55 PM,57.9,42.1,56,29.93,10.0,North,10.4,-,N/A,,Clear,360,2013-10-09 23:55:00
6:55 PM,57.9,41.0,53,29.94,10.0,North,12.7,-,N/A,,Overcast,350,2013-10-10 00:55:00
7:55 PM,55.9,41.0,57,29.94,10.0,North,15.0,-,N/A,,Overcast,350,2013-10-10 01:55:00
8:55 PM,55.9,39.9,55,29.92,10.0,North,15.0,23.0,N/A,,Overcast,10,2013-10-10 02:55:00
9:55 PM,54.0,39.9,59,29.91,10.0,North,13.8,-,N/A,,Overcast,10,2013-10-10 03:55:00
10:55 PM,51.1,39.9,66,29.91,10.0,North,10.4,-,N/A,,Clear,10,2013-10-10 04:55:00
11:55 PM,50.0,39.9,68,29.90,10.0,Calm,Calm,-,N/A,,Clear,0,2013-10-10 05:55:00